Time;durP1;ratioP1;P1;durP2;ratioP2;P2;SDS_P1;SDS_P2;PMS_P1;PMS_P2;Temp;Humidity;BMP_temperature;BMP_pressure;BME280_temperature;BME280_humidity;BME280_pressure;Samples;Min_cycle;Max_cycle;Signal;HPM_P1;HPM_P2
2023/06/04 00:00:31;;;;;;;4.50;2.05;;;8.40;78.00;;;;;;5036222;28;20387;-77
2023/06/04 00:02:56;;;;;;;3.17;2.20;;;8.40;77.90;;;;;;5046819;28;20128;-82
2023/06/04 00:05:25;;;;;;;3.60;2.10;;;8.40;78.80;;;;;;5056007;28;20040;-78
2023/06/04 00:07:53;;;;;;;4.50;1.90;;;8.40;78.50;;;;;;5037942;28;20032;-77
2023/06/04 00:10:19;;;;;;;3.92;1.83;;;8.40;78.60;;;;;;5055741;28;20037;-81
2023/06/04 00:12:45;;;;;;;3.72;2.17;;;8.40;79.20;;;;;;5055786;28;20062;-78
2023/06/04 00:15:10;;;;;;;3.83;2.22;;;8.30;79.40;;;;;;5055704;28;20020;-77
2023/06/04 00:17:36;;;;;;;2.50;2.08;;;8.30;79.10;;;;;;5037737;28;20067;-82
2023/06/04 00:20:02;;;;;;;4.00;2.30;;;8.20;79.10;;;;;;5055801;28;20021;-78
2023/06/04 00:22:28;;;;;;;3.10;2.40;;;8.20;79.50;;;;;;5037856;28;20078;-77
2023/06/04 00:24:54;;;;;;;2.30;2.10;;;8.20;80.10;;;;;;5055705;28;20028;-77
2023/06/04 00:27:19;;;;;;;2.97;2.08;;;8.20;79.90;;;;;;5055548;28;20021;-77
2023/06/04 00:29:45;;;;;;;2.63;1.80;;;8.20;80.30;;;;;;5037576;28;20402;-82
2023/06/04 00:32:11;;;;;;;5.45;2.50;;;8.20;80.70;;;;;;5037487;28;20029;-77
2023/06/04 00:34:36;;;;;;;3.05;2.38;;;8.10;81.00;;;;;;5037559;28;20017;-82
2023/06/04 00:37:02;;;;;;;4.30;3.00;;;8.10;81.40;;;;;;5037561;28;20383;-82
2023/06/04 00:39:29;;;;;;;3.38;2.17;;;8.00;81.50;;;;;;5037206;28;20051;-77
2023/06/04 00:41:54;;;;;;;3.58;2.22;;;8.10;80.70;;;;;;5037700;28;20020;-80
2023/06/04 00:44:21;;;;;;;2.97;1.88;;;8.10;81.20;;;;;;5055385;28;20017;-77
2023/06/04 00:46:49;;;;;;;3.90;2.05;;;8.10;81.00;;;;;;5022320;28;20517;-77
2023/06/04 00:49:14;;;;;;;3.58;2.15;;;8.10;81.70;;;;;;5035023;28;20083;-82
2023/06/04 00:51:40;;;;;;;4.70;2.85;;;8.00;81.90;;;;;;5035072;28;20053;-82
2023/06/04 00:54:08;;;;;;;3.75;1.90;;;8.00;82.50;;;;;;5035060;28;20475;-77
2023/06/04 00:56:38;;;;;;;2.58;2.30;;;8.00;82.70;;;;;;5032785;28;20494;-82
2023/06/04 00:59:06;;;;;;;2.42;2.05;;;7.90;83.10;;;;;;5017025;28;20068;-82
2023/06/04 01:01:41;;;;;;;6.50;2.10;;;7.90;83.70;;;;;;5017097;28;20029;-77
2023/06/04 01:04:12;;;;;;;2.30;2.08;;;7.80;84.10;;;;;;5014004;28;20168;-77
2023/06/04 01:06:47;;;;;;;3.58;1.90;;;7.80;84.70;;;;;;5013442;28;20041;-82
2023/06/04 01:09:14;;;;;;;2.85;1.80;;;7.70;85.50;;;;;;5013366;28;20053;-77
2023/06/04 01:11:40;;;;;;;2.00;1.80;;;7.70;86.70;;;;;;5013429;28;20064;-82
2023/06/04 01:14:10;;;;;;;3.50;2.40;;;7.70;87.20;;;;;;5014865;28;20104;-77
2023/06/04 01:16:45;;;;;;;6.68;2.05;;;7.60;87.10;;;;;;5015064;28;20033;-82
2023/06/04 01:19:35;;;;;;;4.10;1.95;;;7.60;87.00;;;;;;5012476;28;20092;-77
2023/06/04 01:22:11;;;;;;;2.58;1.90;;;7.60;87.50;;;;;;5004562;28;20034;-78
2023/06/04 01:24:41;;;;;;;2.10;1.90;;;7.60;88.10;;;;;;5014929;28;20045;-81
2023/06/04 01:27:08;;;;;;;2.92;1.90;;;7.60;88.30;;;;;;5014695;28;20030;-81
2023/06/04 01:29:36;;;;;;;2.85;2.30;;;7.60;88.50;;;;;;5014590;28;20034;-76
2023/06/04 01:32:02;;;;;;;2.95;2.20;;;7.70;88.30;;;;;;5012265;28;20026;-81
2023/06/04 01:34:27;;;;;;;1.70;1.60;;;7.70;87.70;;;;;;5013194;28;20423;-76
2023/06/04 01:36:53;;;;;;;6.40;2.00;;;7.70;86.50;;;;;;5013236;28;20022;-76
2023/06/04 01:39:19;;;;;;;1.95;1.80;;;7.80;85.10;;;;;;5014424;28;20026;-80
2023/06/04 01:41:44;;;;;;;2.28;2.08;;;7.80;83.50;;;;;;5012521;28;20028;-77
2023/06/04 01:44:10;;;;;;;2.55;1.73;;;7.80;84.90;;;;;;5011453;28;20379;-81
2023/06/04 01:46:36;;;;;;;3.55;2.28;;;7.80;85.40;;;;;;5014414;28;20531;-80
2023/06/04 01:49:01;;;;;;;3.22;2.20;;;7.80;84.90;;;;;;5012749;28;20124;-77
2023/06/04 01:51:27;;;;;;;2.05;1.80;;;7.80;85.60;;;;;;5012541;28;20479;-81
2023/06/04 01:53:52;;;;;;;5.50;1.95;;;7.80;85.80;;;;;;5013152;28;20026;-81
2023/06/04 01:56:20;;;;;;;3.80;1.75;;;7.80;84.70;;;;;;5011856;28;20018;-80
2023/06/04 01:58:46;;;;;;;2.00;1.80;;;7.80;83.70;;;;;;5013687;28;20025;-81
2023/06/04 02:01:12;;;;;;;4.13;2.40;;;7.80;85.00;;;;;;5013916;28;20392;-76
2023/06/04 02:03:37;;;;;;;4.18;1.90;;;7.70;86.00;;;;;;5030152;28;20045;-77
2023/06/04 02:06:07;;;;;;;2.15;1.70;;;7.70;87.60;;;;;;5031729;28;20541;-81
2023/06/04 02:08:33;;;;;;;2.78;1.80;;;7.60;88.00;;;;;;5015745;28;20498;-83
2023/06/04 02:10:59;;;;;;;4.10;1.90;;;7.60;88.30;;;;;;5015905;28;20044;-77
2023/06/04 02:13:25;;;;;;;3.28;2.13;;;7.60;88.70;;;;;;5015953;28;20029;-77
2023/06/04 02:15:50;;;;;;;2.58;1.90;;;7.60;88.80;;;;;;5033418;28;20026;-77
2023/06/04 02:18:20;;;;;;;4.28;2.55;;;7.60;89.90;;;;;;5031178;28;20490;-82
2023/06/04 02:20:47;;;;;;;2.38;1.77;;;7.60;89.40;;;;;;5033511;28;20029;-77
2023/06/04 02:23:13;;;;;;;3.83;1.90;;;7.60;88.90;;;;;;5033463;28;20387;-77
2023/06/04 02:25:39;;;;;;;3.13;2.15;;;7.60;89.50;;;;;;5015636;28;20446;-82
2023/06/04 02:28:07;;;;;;;3.55;1.92;;;7.60;89.70;;;;;;5033126;28;20113;-80
2023/06/04 02:30:32;;;;;;;2.05;1.90;;;7.60;89.30;;;;;;5013699;28;20033;-81
2023/06/04 02:33:00;;;;;;;5.45;1.80;;;7.60;90.20;;;;;;5033520;28;20022;-81
2023/06/04 02:35:29;;;;;;;3.88;2.40;;;7.60;89.20;;;;;;5015639;28;20067;-77
2023/06/04 02:37:57;;;;;;;2.28;1.92;;;7.60;89.30;;;;;;5033235;28;20079;-81
2023/06/04 02:40:26;;;;;;;5.18;2.20;;;7.60;89.10;;;;;;5014737;28;20060;-81
2023/06/04 02:42:53;;;;;;;2.45;1.90;;;7.60;88.20;;;;;;5032092;28;20527;-78
2023/06/04 02:45:18;;;;;;;2.78;1.95;;;7.60;87.00;;;;;;5015384;28;20029;-80
2023/06/04 02:47:44;;;;;;;6.65;2.08;;;7.70;87.00;;;;;;5033021;28;20032;-78
2023/06/04 02:50:10;;;;;;;2.22;2.00;;;7.70;86.60;;;;;;5015459;28;20030;-81
2023/06/04 02:52:39;;;;;;;5.53;1.92;;;7.80;87.00;;;;;;5033365;28;20026;-81
2023/06/04 02:55:06;;;;;;;4.53;2.20;;;7.80;86.10;;;;;;5015536;28;20030;-81
2023/06/04 02:57:32;;;;;;;3.50;2.10;;;7.80;85.50;;;;;;5015490;28;20017;-81
2023/06/04 02:59:59;;;;;;;2.75;1.92;;;7.80;85.20;;;;;;5015261;28;20026;-81
2023/06/04 03:02:25;;;;;;;2.40;1.58;;;7.90;85.20;;;;;;5036135;28;20054;-81
2023/06/04 03:04:52;;;;;;;3.90;1.90;;;7.90;85.30;;;;;;5019306;28;20475;-82
2023/06/04 03:07:20;;;;;;;3.30;2.00;;;7.90;85.10;;;;;;5036985;28;20021;-77
2023/06/04 03:09:47;;;;;;;2.13;1.70;;;8.00;85.40;;;;;;5037117;28;20056;-82
2023/06/04 03:12:12;;;;;;;2.20;1.85;;;8.00;85.20;;;;;;5019639;28;20033;-77
2023/06/04 03:14:38;;;;;;;2.08;1.70;;;8.00;85.50;;;;;;5037241;28;20022;-82
2023/06/04 03:17:10;;;;;;;3.35;2.03;;;8.10;85.90;;;;;;5036919;28;20025;-77
2023/06/04 03:19:40;;;;;;;2.65;2.08;;;8.20;85.90;;;;;;5037009;28;20057;-77
2023/06/04 03:22:08;;;;;;;3.10;2.03;;;8.40;85.10;;;;;;5036974;28;20029;-76
2023/06/04 03:24:39;;;;;;;3.60;2.35;;;8.50;84.30;;;;;;5019130;28;20128;-78
2023/06/04 03:27:07;;;;;;;2.42;1.67;;;8.80;81.60;;;;;;5018925;28;20459;-77
2023/06/04 03:29:33;;;;;;;2.35;2.13;;;9.00;80.80;;;;;;5036751;28;20026;-81
2023/06/04 03:31:59;;;;;;;2.08;1.88;;;9.30;79.40;;;;;;5018867;28;20025;-82
2023/06/04 03:34:25;;;;;;;4.10;1.77;;;9.50;77.30;;;;;;5019086;28;20029;-81
2023/06/04 03:36:52;;;;;;;3.70;1.83;;;9.60;76.70;;;;;;5018920;28;20064;-81
2023/06/04 03:39:18;;;;;;;4.60;2.13;;;9.80;75.60;;;;;;5036586;28;20022;-77
2023/06/04 03:41:44;;;;;;;3.10;1.60;;;9.80;74.80;;;;;;5036448;28;20026;-81
2023/06/04 03:44:09;;;;;;;2.53;2.33;;;10.00;74.00;;;;;;5036547;28;20025;-77
2023/06/04 03:46:35;;;;;;;2.25;1.77;;;10.20;73.60;;;;;;5036321;28;20030;-81
2023/06/04 03:49:02;;;;;;;2.45;1.65;;;10.20;73.10;;;;;;5018582;28;20172;-81
2023/06/04 03:51:27;;;;;;;4.03;1.88;;;10.40;72.80;;;;;;5036457;28;20025;-77
2023/06/04 03:53:53;;;;;;;4.10;1.80;;;10.60;71.70;;;;;;5036454;28;20032;-82
2023/06/04 03:56:19;;;;;;;2.42;1.65;;;10.70;71.40;;;;;;5035922;28;20115;-82
2023/06/04 03:58:44;;;;;;;2.45;1.92;;;10.70;71.00;;;;;;5035310;28;20037;-78
2023/06/04 04:01:13;;;;;;;2.70;2.25;;;10.80;71.10;;;;;;5034922;28;20384;-81
2023/06/04 04:03:38;;;;;;;5.47;2.22;;;10.90;70.80;;;;;;5034985;28;20557;-82
2023/06/04 04:06:04;;;;;;;3.47;1.63;;;10.90;70.30;;;;;;5036032;28;20052;-77
2023/06/04 04:08:31;;;;;;;3.03;1.95;;;11.00;70.00;;;;;;5036045;28;20051;-81
2023/06/04 04:11:01;;;;;;;2.72;1.85;;;11.00;69.60;;;;;;5036229;28;20040;-81
2023/06/04 04:13:26;;;;;;;2.85;1.92;;;11.00;69.40;;;;;;5035109;28;20033;-81
2023/06/04 04:15:52;;;;;;;1.92;1.75;;;11.00;69.70;;;;;;5035982;28;20017;-77
2023/06/04 04:18:22;;;;;;;2.95;1.92;;;11.20;69.10;;;;;;5035873;28;20068;-81
2023/06/04 04:20:47;;;;;;;5.78;1.88;;;11.30;69.30;;;;;;5035692;28;20114;-77
2023/06/04 04:23:13;;;;;;;1.60;1.50;;;11.20;68.90;;;;;;5035772;28;20478;-77
2023/06/04 04:25:39;;;;;;;2.03;1.67;;;11.20;68.70;;;;;;5034460;28;20022;-79
2023/06/04 04:28:07;;;;;;;2.60;2.13;;;11.30;68.50;;;;;;5035661;28;20109;-77
2023/06/04 04:30:34;;;;;;;3.17;2.50;;;11.40;68.10;;;;;;5036775;28;20037;-81
2023/06/04 04:33:01;;;;;;;1.75;1.65;;;11.50;68.30;;;;;;5022385;28;20025;-82
2023/06/04 04:35:26;;;;;;;1.67;1.52;;;11.60;67.90;;;;;;5055307;28;20017;-78
2023/06/04 04:37:52;;;;;;;2.80;1.73;;;11.60;67.20;;;;;;5055295;28;20025;-82
2023/06/04 04:40:18;;;;;;;2.55;1.90;;;11.60;67.10;;;;;;5055246;28;20426;-77
2023/06/04 04:42:43;;;;;;;2.25;1.77;;;11.60;67.40;;;;;;5037408;28;20116;-77
2023/06/04 04:45:09;;;;;;;2.15;1.80;;;11.70;67.90;;;;;;5037414;28;20025;-81
2023/06/04 04:47:35;;;;;;;2.67;1.67;;;11.70;68.20;;;;;;5037251;28;20036;-81
2023/06/04 04:50:01;;;;;;;4.35;1.92;;;11.80;67.80;;;;;;5037215;28;20037;-77
2023/06/04 04:52:26;;;;;;;3.13;1.67;;;11.80;67.30;;;;;;5051698;28;20498;-82
2023/06/04 04:54:55;;;;;;;2.58;1.88;;;11.90;67.40;;;;;;5025701;28;20482;-77
2023/06/04 04:57:22;;;;;;;3.42;1.80;;;11.90;67.30;;;;;;5044531;28;20067;-82
2023/06/04 04:59:48;;;;;;;1.83;1.70;;;12.00;67.60;;;;;;5045142;28;20017;-78
2023/06/04 05:02:14;;;;;;;1.85;1.67;;;12.00;67.60;;;;;;5025219;28;20071;-77
2023/06/04 05:04:40;;;;;;;5.50;2.10;;;12.10;67.10;;;;;;5043026;28;20030;-80
2023/06/04 05:07:06;;;;;;;4.03;2.10;;;12.20;66.40;;;;;;5043896;28;20088;-77
2023/06/04 05:09:31;;;;;;;4.45;1.33;;;12.20;67.50;;;;;;5026846;28;20029;-77
2023/06/04 05:11:57;;;;;;;6.78;1.90;;;12.20;66.80;;;;;;5043271;28;20478;-77
2023/06/04 05:14:23;;;;;;;3.50;1.45;;;12.20;66.80;;;;;;5030876;28;20066;-81
2023/06/04 05:16:49;;;;;;;2.30;1.52;;;12.30;66.30;;;;;;5036372;28;20029;-81
2023/06/04 05:19:16;;;;;;;2.33;1.60;;;12.40;66.00;;;;;;5031465;28;20027;-80
2023/06/04 05:21:43;;;;;;;2.72;1.70;;;12.50;65.60;;;;;;5054325;28;20475;-77
2023/06/04 05:24:09;;;;;;;1.88;1.55;;;12.60;65.70;;;;;;5035951;28;20032;-77
2023/06/04 05:26:35;;;;;;;2.85;1.60;;;12.70;65.30;;;;;;5033458;28;20021;-80
2023/06/04 05:29:01;;;;;;;2.05;1.70;;;12.80;64.70;;;;;;5053394;28;20116;-77
2023/06/04 05:31:27;;;;;;;2.88;1.30;;;12.80;64.30;;;;;;5035583;28;20390;-77
2023/06/04 05:33:52;;;;;;;4.63;1.70;;;13.00;63.70;;;;;;5034211;28;20451;-80
2023/06/04 05:36:19;;;;;;;2.80;1.80;;;13.10;63.20;;;;;;5016418;28;20068;-77
2023/06/04 05:38:44;;;;;;;4.53;2.38;;;13.30;63.10;;;;;;5016273;28;20029;-81
2023/06/04 05:41:11;;;;;;;2.72;1.90;;;13.40;62.80;;;;;;5016397;28;20132;-78
2023/06/04 05:43:36;;;;;;;2.13;1.45;;;13.60;62.40;;;;;;5016022;28;20108;-78
2023/06/04 05:46:02;;;;;;;3.25;1.65;;;13.70;62.30;;;;;;5032654;28;20125;-81
2023/06/04 05:48:28;;;;;;;3.10;1.75;;;13.70;60.30;;;;;;5027128;28;20021;-81
2023/06/04 05:50:53;;;;;;;5.55;2.15;;;13.80;59.70;;;;;;5015626;28;20021;-81
2023/06/04 05:53:19;;;;;;;4.68;2.33;;;14.00;60.80;;;;;;5015834;28;20021;-77
2023/06/04 05:55:44;;;;;;;1.60;1.42;;;14.10;59.80;;;;;;5015966;28;20068;-77
2023/06/04 05:58:10;;;;;;;2.67;1.48;;;14.20;57.80;;;;;;5033454;28;20495;-77
2023/06/04 06:00:35;;;;;;;1.65;1.30;;;14.30;57.10;;;;;;5015933;28;20482;-78
2023/06/04 06:03:01;;;;;;;3.05;1.13;;;14.50;56.90;;;;;;5015581;28;20487;-80
2023/06/04 06:05:27;;;;;;;3.22;1.67;;;14.60;56.20;;;;;;5030322;28;20437;-80
2023/06/04 06:07:52;;;;;;;2.65;1.17;;;14.60;55.20;;;;;;5015463;28;20030;-80
2023/06/04 06:10:19;;;;;;;5.57;1.85;;;14.70;54.40;;;;;;5043727;28;20025;-80
2023/06/04 06:12:44;;;;;;;3.00;1.50;;;14.80;54.30;;;;;;5015449;28;20093;-77
2023/06/04 06:15:10;;;;;;;4.45;1.38;;;14.80;53.80;;;;;;5033550;28;20475;-77
2023/06/04 06:17:38;;;;;;;2.30;1.33;;;14.90;54.40;;;;;;5015933;28;20018;-77
2023/06/04 06:20:07;;;;;;;2.95;1.42;;;15.10;54.50;;;;;;5015936;28;20013;-80
2023/06/04 06:22:35;;;;;;;2.88;1.35;;;15.20;54.40;;;;;;5015717;28;20045;-77
2023/06/04 06:25:01;;;;;;;2.58;1.48;;;15.40;53.70;;;;;;5015658;28;20025;-78
2023/06/04 06:27:26;;;;;;;2.28;1.23;;;15.50;53.60;;;;;;5033265;28;20021;-78
2023/06/04 06:29:52;;;;;;;3.05;1.52;;;15.70;53.30;;;;;;5033139;28;20075;-77
2023/06/04 06:32:17;;;;;;;2.50;1.50;;;15.70;52.90;;;;;;5032958;28;20472;-77
2023/06/04 06:34:43;;;;;;;1.52;1.13;;;15.70;52.70;;;;;;5015426;28;20025;-77
2023/06/04 06:37:09;;;;;;;2.05;1.30;;;15.80;52.10;;;;;;5022067;28;20495;-78
2023/06/04 06:39:35;;;;;;;1.60;1.20;;;16.00;52.40;;;;;;5041288;28;20017;-78
2023/06/04 06:42:00;;;;;;;1.63;1.42;;;16.00;52.10;;;;;;5023878;28;20113;-77
2023/06/04 06:44:26;;;;;;;4.93;1.60;;;16.10;51.60;;;;;;5012418;28;20442;-78
2023/06/04 06:46:51;;;;;;;4.40;1.10;;;16.30;51.80;;;;;;5012025;28;20414;-80
2023/06/04 06:49:17;;;;;;;2.65;1.27;;;16.30;50.60;;;;;;5012157;28;20030;-79
2023/06/04 06:51:42;;;;;;;5.15;2.35;;;16.50;49.70;;;;;;5012196;28;20360;-80
2023/06/04 06:54:15;;;;;;;3.28;1.20;;;16.60;49.30;;;;;;5012082;28;20105;-78
2023/06/04 06:56:41;;;;;;;1.30;1.08;;;16.50;48.60;;;;;;5011979;28;20506;-80
2023/06/04 06:59:07;;;;;;;2.47;0.93;;;16.50;48.70;;;;;;5023101;28;20025;-79
2023/06/04 07:01:33;;;;;;;4.85;1.40;;;16.60;48.30;;;;;;5043172;28;20025;-80
2023/06/04 07:03:59;;;;;;;1.40;1.30;;;16.70;48.00;;;;;;5038374;28;20063;-79
2023/06/04 07:06:25;;;;;;;3.03;1.40;;;16.70;47.70;;;;;;5032960;28;20100;-80
2023/06/04 07:08:50;;;;;;;3.25;1.50;;;16.80;47.50;;;;;;5032876;28;20390;-78
2023/06/04 07:11:16;;;;;;;5.82;1.67;;;16.80;47.30;;;;;;5019341;28;20025;-81
2023/06/04 07:13:42;;;;;;;3.40;1.50;;;17.00;48.00;;;;;;5024810;28;20021;-81
2023/06/04 07:16:08;;;;;;;3.95;2.45;;;17.00;47.70;;;;;;5032320;28;20392;-80
2023/06/04 07:18:33;;;;;;;2.42;1.27;;;17.10;48.30;;;;;;5035526;28;20096;-79
2023/06/04 07:20:59;;;;;;;1.95;1.30;;;17.20;48.00;;;;;;5015348;28;20035;-81
2023/06/04 07:23:25;;;;;;;1.48;1.25;;;17.00;47.20;;;;;;5033012;28;20550;-81
2023/06/04 07:25:50;;;;;;;3.55;1.42;;;17.20;47.50;;;;;;5032955;28;20093;-82
2023/06/04 07:28:16;;;;;;;1.98;1.10;;;17.30;48.10;;;;;;5015141;28;20033;-81
2023/06/04 07:30:42;;;;;;;4.05;1.30;;;17.50;47.00;;;;;;5032919;28;20032;-82
2023/06/04 07:33:08;;;;;;;4.28;1.20;;;17.60;47.20;;;;;;5015260;28;20021;-82
2023/06/04 07:35:33;;;;;;;1.98;1.20;;;17.60;46.60;;;;;;5015093;28;20037;-80
2023/06/04 07:37:59;;;;;;;7.45;1.75;;;17.70;46.70;;;;;;5032916;28;20078;-79
2023/06/04 07:40:25;;;;;;;3.20;1.27;;;17.90;46.40;;;;;;5015154;28;20120;-83
2023/06/04 07:42:50;;;;;;;3.50;1.58;;;18.00;46.30;;;;;;5010429;28;20030;-82
2023/06/04 07:45:16;;;;;;;3.83;1.25;;;18.00;45.10;;;;;;5012921;28;20037;-80
2023/06/04 07:47:43;;;;;;;2.50;1.17;;;18.10;45.40;;;;;;5012045;28;20021;-80
2023/06/04 07:50:09;;;;;;;4.10;1.55;;;18.20;45.60;;;;;;5016453;28;20041;-82
2023/06/04 07:52:34;;;;;;;1.33;1.00;;;18.20;44.70;;;;;;5015173;28;20030;-80
2023/06/04 07:55:01;;;;;;;2.85;1.60;;;18.00;44.30;;;;;;5015507;28;20599;-83
2023/06/04 07:57:27;;;;;;;2.10;1.20;;;18.10;45.20;;;;;;5015076;28;20080;-80
2023/06/04 07:59:52;;;;;;;5.78;1.73;;;18.20;45.40;;;;;;5014983;28;20419;-82
2023/06/04 08:02:18;;;;;;;4.95;1.67;;;18.40;45.50;;;;;;5020329;28;20045;-82
2023/06/04 08:04:45;;;;;;;4.97;1.35;;;18.50;44.70;;;;;;5034825;28;20029;-81
2023/06/04 08:07:11;;;;;;;9.48;1.27;;;18.30;42.40;;;;;;5034648;28;20120;-82
2023/06/04 08:09:36;;;;;;;4.25;1.85;;;18.40;42.70;;;;;;5038518;28;20131;-82
2023/06/04 08:12:02;;;;;;;3.08;1.33;;;18.50;42.90;;;;;;5028248;28;20022;-82
2023/06/04 08:14:28;;;;;;;3.38;1.58;;;18.70;42.60;;;;;;5026531;28;20044;-80
2023/06/04 08:16:54;;;;;;;3.65;1.67;;;18.70;41.50;;;;;;5045773;28;20378;-81
2023/06/04 08:19:20;;;;;;;6.38;1.38;;;18.70;39.90;;;;;;5030716;28;20146;-82
2023/06/04 08:21:47;;;;;;;3.58;1.33;;;18.80;40.50;;;;;;5033841;28;20104;-81
2023/06/04 08:24:13;;;;;;;2.50;1.45;;;18.80;40.60;;;;;;5023110;28;20032;-82
2023/06/04 08:26:39;;;;;;;3.28;1.30;;;18.90;39.40;;;;;;5045482;28;20030;-81
2023/06/04 08:29:05;;;;;;;4.45;1.30;;;18.80;39.60;;;;;;5035476;28;20042;-81
2023/06/04 08:31:31;;;;;;;2.38;0.98;;;18.80;39.70;;;;;;5021176;28;20036;-80
2023/06/04 08:33:57;;;;;;;2.60;1.08;;;18.50;39.80;;;;;;5045245;28;20014;-82
2023/06/04 08:36:22;;;;;;;5.30;1.65;;;18.80;41.30;;;;;;5044083;28;20016;-80
2023/06/04 08:38:50;;;;;;;4.43;1.20;;;18.80;40.60;;;;;;5028043;28;20104;-83
2023/06/04 08:41:27;;;;;;;4.75;1.40;;;18.90;39.90;;;;;;5034528;28;20026;-81
2023/06/04 08:43:57;;;;;;;2.17;1.35;;;19.10;39.60;;;;;;5035032;28;20091;-79
2023/06/04 08:46:23;;;;;;;2.33;1.10;;;19.00;40.10;;;;;;5034994;28;20024;-80
2023/06/04 08:48:50;;;;;;;4.72;1.50;;;19.10;39.80;;;;;;5034970;28;20107;-82
2023/06/04 08:51:16;;;;;;;3.92;1.33;;;19.40;40.30;;;;;;5035049;28;20025;-79
2023/06/04 08:53:42;;;;;;;2.88;0.98;;;19.30;39.40;;;;;;5034739;28;20025;-81
2023/06/04 08:56:09;;;;;;;5.45;1.55;;;19.20;39.70;;;;;;5017198;28;20025;-81
2023/06/04 08:58:40;;;;;;;6.57;1.73;;;19.50;40.00;;;;;;5034350;28;20014;-80
2023/06/04 09:01:07;;;;;;;4.80;1.20;;;19.60;40.00;;;;;;5034928;28;20030;-80
2023/06/04 09:03:33;;;;;;;5.30;1.30;;;20.10;39.70;;;;;;5034735;28;20050;-82
2023/06/04 09:06:00;;;;;;;4.20;1.27;;;20.20;39.10;;;;;;5017080;28;20367;-82
2023/06/04 09:08:27;;;;;;;2.53;1.08;;;20.30;38.50;;;;;;5017246;28;20037;-81
2023/06/04 09:10:54;;;;;;;3.88;1.40;;;20.00;38.70;;;;;;5017085;28;20026;-82
2023/06/04 09:13:23;;;;;;;2.30;1.05;;;20.10;38.40;;;;;;5034722;28;20143;-82
2023/06/04 09:16:02;;;;;;;1.90;1.27;;;20.20;38.50;;;;;;5034784;28;20036;-81
2023/06/04 09:18:28;;;;;;;2.13;1.20;;;20.40;37.80;;;;;;5034643;28;20031;-80
2023/06/04 09:21:02;;;;;;;5.15;1.95;;;20.50;38.00;;;;;;5023084;28;20116;-80
2023/06/04 09:23:27;;;;;;;2.10;1.23;;;20.60;38.20;;;;;;5045940;28;20529;-79
2023/06/04 09:25:53;;;;;;;2.47;1.58;;;20.40;37.50;;;;;;5054557;28;20022;-80
2023/06/04 09:28:20;;;;;;;1.67;1.10;;;20.60;37.80;;;;;;5034775;28;20080;-80
2023/06/04 09:30:55;;;;;;;5.20;2.00;;;20.70;36.50;;;;;;5034644;28;20037;-80
2023/06/04 09:33:20;;;;;;;2.60;1.48;;;20.60;36.80;;;;;;5042226;28;20410;-80
2023/06/04 09:35:58;;;;;;;6.03;1.08;;;20.50;37.00;;;;;;5044428;28;20021;-79
2023/06/04 09:38:36;;;;;;;3.50;1.52;;;20.30;37.20;;;;;;5047054;28;20048;-80
2023/06/04 09:41:05;;;;;;;3.80;1.40;;;20.30;36.80;;;;;;5034531;28;20025;-79
2023/06/04 09:43:34;;;;;;;2.17;1.40;;;20.30;36.30;;;;;;5051729;28;20024;-80
2023/06/04 09:46:14;;;;;;;2.67;1.30;;;20.50;36.80;;;;;;5024534;28;20117;-80
2023/06/04 09:48:41;;;;;;;3.53;1.35;;;20.70;36.90;;;;;;5022189;28;20387;-79
2023/06/04 09:51:11;;;;;;;5.55;1.48;;;20.30;37.20;;;;;;5043397;28;20483;-79
2023/06/04 09:53:38;;;;;;;2.92;1.35;;;20.30;37.90;;;;;;5012952;28;20107;-79
2023/06/04 09:56:06;;;;;;;3.97;1.50;;;20.10;37.20;;;;;;5015133;28;20491;-79
2023/06/04 09:58:33;;;;;;;1.92;1.23;;;20.10;37.60;;;;;;5035166;28;20018;-79
2023/06/04 10:01:01;;;;;;;2.60;1.50;;;20.30;38.40;;;;;;5041364;28;20026;-79
2023/06/04 10:03:34;;;;;;;4.88;1.45;;;20.30;38.00;;;;;;5042611;28;20099;-79
2023/06/04 10:06:04;;;;;;;4.03;1.75;;;20.30;37.40;;;;;;5038228;28;20021;-79
2023/06/04 10:08:32;;;;;;;2.95;1.60;;;20.60;37.20;;;;;;5033021;28;20467;-79
2023/06/04 10:11:02;;;;;;;2.30;1.45;;;20.70;37.50;;;;;;5019097;28;20029;-80
2023/06/04 10:13:31;;;;;;;3.75;1.20;;;20.50;37.00;;;;;;5049836;28;20033;-80
2023/06/04 10:16:01;;;;;;;3.67;1.70;;;20.60;36.70;;;;;;5034948;28;20064;-81
2023/06/04 10:18:28;;;;;;;2.15;1.48;;;20.80;35.50;;;;;;5052382;28;20025;-80
2023/06/04 10:20:58;;;;;;;2.97;1.52;;;20.90;36.80;;;;;;5034792;28;20024;-80
2023/06/04 10:23:25;;;;;;;2.85;1.40;;;21.10;35.60;;;;;;5052620;28;20020;-79
2023/06/04 10:25:54;;;;;;;4.20;1.70;;;21.30;35.80;;;;;;5052466;28;20025;-80
2023/06/04 10:28:20;;;;;;;3.58;1.52;;;20.60;35.40;;;;;;5017258;28;20390;-79
2023/06/04 10:30:50;;;;;;;3.33;1.30;;;20.60;36.60;;;;;;5015317;28;20034;-79
2023/06/04 10:33:20;;;;;;;3.83;1.40;;;20.70;37.20;;;;;;5028731;28;20383;-79
2023/06/04 10:35:46;;;;;;;2.83;1.70;;;20.80;37.80;;;;;;5053117;28;20029;-80
2023/06/04 10:38:16;;;;;;;6.30;1.73;;;20.80;36.60;;;;;;5052985;28;20017;-80
2023/06/04 10:40:42;;;;;;;3.58;1.50;;;20.80;36.40;;;;;;5038426;28;20045;-80
2023/06/04 10:43:13;;;;;;;4.15;1.48;;;20.90;35.50;;;;;;5015258;28;20073;-80
2023/06/04 10:45:40;;;;;;;1.75;1.40;;;21.00;35.80;;;;;;5032897;28;20104;-79
2023/06/04 10:48:07;;;;;;;1.90;1.35;;;20.80;36.00;;;;;;5015123;28;20036;-81
2023/06/04 10:50:34;;;;;;;4.32;1.45;;;20.90;35.90;;;;;;5015236;28;20032;-81
2023/06/04 10:53:05;;;;;;;2.20;1.52;;;21.10;36.80;;;;;;5015129;28;20021;-81
2023/06/04 10:55:31;;;;;;;5.57;1.40;;;21.10;35.90;;;;;;5016007;28;20112;-80
2023/06/04 10:58:01;;;;;;;5.20;1.40;;;21.00;36.50;;;;;;5015052;28;20410;-79
2023/06/04 11:00:41;;;;;;;4.18;1.77;;;21.00;37.10;;;;;;5015172;28;20022;-79
2023/06/04 11:03:09;;;;;;;2.80;1.33;;;21.20;37.80;;;;;;5014966;28;20049;-80
2023/06/04 11:05:40;;;;;;;2.00;1.55;;;21.40;36.40;;;;;;5015212;28;20116;-79
2023/06/04 11:08:06;;;;;;;2.03;1.55;;;21.30;36.00;;;;;;5032928;28;20040;-80
2023/06/04 11:10:34;;;;;;;4.07;1.65;;;21.40;35.90;;;;;;5015139;28;20128;-79
2023/06/04 11:13:01;;;;;;;3.28;1.70;;;21.50;37.10;;;;;;5032695;28;20029;-79
2023/06/04 11:15:36;;;;;;;4.25;1.67;;;21.70;37.20;;;;;;5035129;28;20364;-79
2023/06/04 11:18:02;;;;;;;2.70;1.20;;;21.60;36.30;;;;;;5030094;28;20116;-78
2023/06/04 11:20:28;;;;;;;3.15;1.48;;;21.60;35.10;;;;;;5029234;28;20113;-79
2023/06/04 11:22:55;;;;;;;3.30;1.38;;;21.60;35.00;;;;;;5016691;28;20068;-79
2023/06/04 11:25:26;;;;;;;6.13;1.85;;;21.70;34.80;;;;;;5025049;28;20044;-79
2023/06/04 11:27:54;;;;;;;3.42;1.50;;;21.80;35.50;;;;;;5015894;28;20113;-79
2023/06/04 11:30:21;;;;;;;5.30;1.90;;;22.10;35.20;;;;;;5015096;28;20041;-79
2023/06/04 11:32:47;;;;;;;5.13;1.42;;;22.20;35.70;;;;;;5016021;28;20030;-79
2023/06/04 11:35:13;;;;;;;4.35;1.38;;;22.00;35.10;;;;;;5034240;28;20021;-79
2023/06/04 11:37:40;;;;;;;1.60;1.25;;;22.00;34.70;;;;;;5034976;28;20042;-79
2023/06/04 11:40:17;;;;;;;2.72;1.52;;;22.10;35.20;;;;;;5053982;28;20044;-79
2023/06/04 11:42:43;;;;;;;4.93;1.13;;;22.30;35.20;;;;;;5035526;28;20044;-79
2023/06/04 11:45:12;;;;;;;5.80;1.80;;;22.20;35.90;;;;;;5042163;28;20032;-79
2023/06/04 11:47:37;;;;;;;1.67;1.52;;;22.00;35.70;;;;;;5030434;28;20372;-78
2023/06/04 11:50:04;;;;;;;2.90;1.50;;;22.00;35.30;;;;;;5018050;28;20124;-78
2023/06/04 11:52:29;;;;;;;3.53;1.15;;;22.10;34.80;;;;;;5035503;28;20112;-78
2023/06/04 11:54:55;;;;;;;2.67;1.52;;;22.20;35.40;;;;;;5017984;28;20132;-79
2023/06/04 11:57:21;;;;;;;6.05;1.80;;;22.20;35.80;;;;;;5035742;28;20025;-79
2023/06/04 11:59:47;;;;;;;9.38;2.63;;;22.10;35.90;;;;;;5017906;28;20029;-78
2023/06/04 12:02:13;;;;;;;3.35;1.42;;;21.90;35.90;;;;;;5035433;28;20447;-79
2023/06/04 12:04:39;;;;;;;1.70;1.20;;;21.80;36.50;;;;;;5017923;28;20040;-79
2023/06/04 12:07:06;;;;;;;2.17;1.17;;;21.20;36.20;;;;;;5017984;28;20067;-78
2023/06/04 12:09:35;;;;;;;2.30;1.70;;;21.20;35.90;;;;;;5017963;28;20124;-79
2023/06/04 12:12:05;;;;;;;2.63;1.40;;;21.30;36.60;;;;;;5018054;28;20430;-78
2023/06/04 12:14:31;;;;;;;2.72;1.65;;;21.40;36.40;;;;;;5023447;28;20021;-79
2023/06/04 12:17:00;;;;;;;7.30;1.75;;;21.40;37.20;;;;;;5015764;28;20053;-79
2023/06/04 12:19:27;;;;;;;2.00;1.40;;;21.40;36.50;;;;;;5015581;28;20041;-79
2023/06/04 12:22:06;;;;;;;3.20;1.40;;;21.60;36.70;;;;;;5015356;28;20057;-79
2023/06/04 12:24:52;;;;;;;4.13;1.70;;;21.90;36.70;;;;;;5014356;28;20025;-78
2023/06/04 12:27:18;;;;;;;5.32;1.58;;;22.10;36.30;;;;;;5015574;28;20025;-79
2023/06/04 12:29:58;;;;;;;3.67;1.58;;;22.20;36.30;;;;;;5014424;28;20038;-79
2023/06/04 12:32:23;;;;;;;2.58;1.33;;;22.40;35.50;;;;;;5013518;28;20475;-80
2023/06/04 12:34:49;;;;;;;2.88;1.50;;;22.50;34.30;;;;;;5012936;28;20049;-80
2023/06/04 12:37:15;;;;;;;1.88;1.30;;;22.60;34.60;;;;;;5024107;28;20033;-79
2023/06/04 12:39:40;;;;;;;2.40;1.63;;;22.30;34.60;;;;;;5015181;28;20032;-78
2023/06/04 12:42:08;;;;;;;3.25;1.30;;;22.50;34.40;;;;;;5032291;28;20104;-79
2023/06/04 12:44:36;;;;;;;1.40;1.17;;;22.50;35.50;;;;;;5033707;28;20037;-79
2023/06/04 12:47:02;;;;;;;2.17;1.48;;;22.50;35.40;;;;;;5033770;28;20024;-78
2023/06/04 12:49:27;;;;;;;10.70;1.90;;;22.00;34.50;;;;;;5034896;28;20033;-79